sensor_id;sensor_type;location;lat;lon;timestamp;P1;durP1;ratioP1;P2;durP2;ratioP2
18881;SDS011;9573;50.948;11.600;2024-01-16T00:00:04;3.67;;;1.10;;
18881;SDS011;9573;50.948;11.600;2024-01-16T00:02:34;3.60;;;1.40;;
18881;SDS011;9573;50.948;11.600;2024-01-16T00:05:01;4.40;;;1.67;;
18881;SDS011;9573;50.948;11.600;2024-01-16T00:07:30;6.50;;;2.10;;
18881;SDS011;9573;50.948;11.600;2024-01-16T00:09:59;2.70;;;1.50;;
18881;SDS011;9573;50.948;11.600;2024-01-16T00:12:27;3.57;;;1.77;;
18881;SDS011;9573;50.948;11.600;2024-01-16T00:14:54;6.80;;;2.10;;
18881;SDS011;9573;50.948;11.600;2024-01-16T00:17:21;6.27;;;1.90;;
18881;SDS011;9573;50.948;11.600;2024-01-16T00:19:48;6.73;;;2.30;;
18881;SDS011;9573;50.948;11.600;2024-01-16T00:22:16;5.70;;;1.80;;
18881;SDS011;9573;50.948;11.600;2024-01-16T00:24:44;5.20;;;1.33;;
18881;SDS011;9573;50.948;11.600;2024-01-16T00:27:11;6.87;;;1.90;;
18881;SDS011;9573;50.948;11.600;2024-01-16T00:29:38;4.10;;;1.90;;
18881;SDS011;9573;50.948;11.600;2024-01-16T00:32:06;5.17;;;1.80;;
18881;SDS011;9573;50.948;11.600;2024-01-16T00:34:33;4.17;;;1.67;;
18881;SDS011;9573;50.948;11.600;2024-01-16T00:37:00;8.20;;;1.67;;
18881;SDS011;9573;50.948;11.600;2024-01-16T00:39:27;10.17;;;1.80;;
18881;SDS011;9573;50.948;11.600;2024-01-16T00:41:56;8.23;;;1.97;;
18881;SDS011;9573;50.948;11.600;2024-01-16T00:44:23;7.17;;;1.60;;
18881;SDS011;9573;50.948;11.600;2024-01-16T00:46:50;5.07;;;1.70;;
18881;SDS011;9573;50.948;11.600;2024-01-16T00:49:17;5.30;;;1.57;;
18881;SDS011;9573;50.948;11.600;2024-01-16T00:51:45;5.93;;;2.00;;
18881;SDS011;9573;50.948;11.600;2024-01-16T00:54:12;4.57;;;1.53;;
18881;SDS011;9573;50.948;11.600;2024-01-16T00:56:41;7.50;;;1.80;;
18881;SDS011;9573;50.948;11.600;2024-01-16T00:59:10;5.07;;;1.70;;
18881;SDS011;9573;50.948;11.600;2024-01-16T01:01:37;4.90;;;1.17;;
18881;SDS011;9573;50.948;11.600;2024-01-16T01:04:04;2.67;;;1.03;;
18881;SDS011;9573;50.948;11.600;2024-01-16T01:06:31;6.93;;;1.90;;
18881;SDS011;9573;50.948;11.600;2024-01-16T01:08:58;3.43;;;1.37;;
18881;SDS011;9573;50.948;11.600;2024-01-16T01:11:25;2.50;;;1.50;;
18881;SDS011;9573;50.948;11.600;2024-01-16T01:13:52;7.70;;;1.87;;
18881;SDS011;9573;50.948;11.600;2024-01-16T01:16:22;3.87;;;1.93;;
18881;SDS011;9573;50.948;11.600;2024-01-16T01:18:49;4.77;;;2.10;;
18881;SDS011;9573;50.948;11.600;2024-01-16T01:21:17;4.90;;;2.07;;
18881;SDS011;9573;50.948;11.600;2024-01-16T01:23:44;6.53;;;1.93;;
18881;SDS011;9573;50.948;11.600;2024-01-16T01:26:11;4.77;;;2.00;;
18881;SDS011;9573;50.948;11.600;2024-01-16T01:28:39;8.70;;;1.93;;
18881;SDS011;9573;50.948;11.600;2024-01-16T01:31:08;7.23;;;2.10;;
18881;SDS011;9573;50.948;11.600;2024-01-16T01:33:36;3.80;;;1.57;;
18881;SDS011;9573;50.948;11.600;2024-01-16T01:36:03;14.30;;;2.47;;
18881;SDS011;9573;50.948;11.600;2024-01-16T01:38:31;9.07;;;2.70;;
18881;SDS011;9573;50.948;11.600;2024-01-16T01:40:58;10.17;;;2.60;;
18881;SDS011;9573;50.948;11.600;2024-01-16T01:43:25;12.60;;;2.57;;
18881;SDS011;9573;50.948;11.600;2024-01-16T01:46:05;8.77;;;2.43;;
18881;SDS011;9573;50.948;11.600;2024-01-16T01:48:38;4.93;;;2.13;;
18881;SDS011;9573;50.948;11.600;2024-01-16T01:51:07;4.63;;;1.70;;
18881;SDS011;9573;50.948;11.600;2024-01-16T01:53:35;4.20;;;2.00;;
18881;SDS011;9573;50.948;11.600;2024-01-16T01:56:03;3.83;;;1.30;;
18881;SDS011;9573;50.948;11.600;2024-01-16T01:58:34;3.73;;;2.03;;
18881;SDS011;9573;50.948;11.600;2024-01-16T02:01:03;4.83;;;2.30;;
18881;SDS011;9573;50.948;11.600;2024-01-16T02:03:32;6.53;;;1.97;;
18881;SDS011;9573;50.948;11.600;2024-01-16T02:06:07;6.77;;;2.10;;
18881;SDS011;9573;50.948;11.600;2024-01-16T02:08:35;6.63;;;2.10;;
18881;SDS011;9573;50.948;11.600;2024-01-16T02:11:02;6.77;;;1.60;;
18881;SDS011;9573;50.948;11.600;2024-01-16T02:13:30;4.97;;;1.77;;
18881;SDS011;9573;50.948;11.600;2024-01-16T02:15:58;3.40;;;1.70;;
18881;SDS011;9573;50.948;11.600;2024-01-16T02:18:26;2.90;;;1.60;;
18881;SDS011;9573;50.948;11.600;2024-01-16T02:20:54;4.80;;;1.90;;
18881;SDS011;9573;50.948;11.600;2024-01-16T02:23:28;3.77;;;2.20;;
18881;SDS011;9573;50.948;11.600;2024-01-16T02:25:56;4.40;;;1.40;;
18881;SDS011;9573;50.948;11.600;2024-01-16T02:28:23;7.30;;;1.57;;
18881;SDS011;9573;50.948;11.600;2024-01-16T02:30:50;5.00;;;1.70;;
18881;SDS011;9573;50.948;11.600;2024-01-16T02:33:17;1.50;;;1.10;;
18881;SDS011;9573;50.948;11.600;2024-01-16T02:35:44;9.17;;;2.20;;
18881;SDS011;9573;50.948;11.600;2024-01-16T02:38:12;4.70;;;2.40;;
18881;SDS011;9573;50.948;11.600;2024-01-16T02:40:41;2.90;;;1.10;;
18881;SDS011;9573;50.948;11.600;2024-01-16T02:43:08;2.13;;;1.00;;
18881;SDS011;9573;50.948;11.600;2024-01-16T02:45:35;8.07;;;2.20;;
18881;SDS011;9573;50.948;11.600;2024-01-16T02:48:02;6.47;;;2.00;;
18881;SDS011;9573;50.948;11.600;2024-01-16T02:50:29;4.43;;;1.80;;
18881;SDS011;9573;50.948;11.600;2024-01-16T02:52:56;6.17;;;1.60;;
18881;SDS011;9573;50.948;11.600;2024-01-16T02:55:24;5.93;;;2.17;;
18881;SDS011;9573;50.948;11.600;2024-01-16T02:57:52;6.03;;;2.10;;
18881;SDS011;9573;50.948;11.600;2024-01-16T03:00:19;5.93;;;1.90;;
18881;SDS011;9573;50.948;11.600;2024-01-16T03:02:47;7.37;;;1.90;;
18881;SDS011;9573;50.948;11.600;2024-01-16T03:05:15;8.10;;;2.20;;
18881;SDS011;9573;50.948;11.600;2024-01-16T03:07:42;7.73;;;2.23;;
18881;SDS011;9573;50.948;11.600;2024-01-16T03:10:09;9.27;;;2.60;;
18881;SDS011;9573;50.948;11.600;2024-01-16T03:12:36;3.70;;;2.00;;
18881;SDS011;9573;50.948;11.600;2024-01-16T03:15:05;5.60;;;2.00;;
18881;SDS011;9573;50.948;11.600;2024-01-16T03:17:33;1.90;;;1.37;;
18881;SDS011;9573;50.948;11.600;2024-01-16T03:20:00;7.67;;;2.00;;
18881;SDS011;9573;50.948;11.600;2024-01-16T03:22:28;1.67;;;1.47;;
18881;SDS011;9573;50.948;11.600;2024-01-16T03:24:55;4.50;;;1.60;;
18881;SDS011;9573;50.948;11.600;2024-01-16T03:27:23;3.07;;;1.60;;
18881;SDS011;9573;50.948;11.600;2024-01-16T03:29:50;4.30;;;1.43;;
18881;SDS011;9573;50.948;11.600;2024-01-16T03:32:19;3.20;;;1.67;;
18881;SDS011;9573;50.948;11.600;2024-01-16T03:34:46;4.97;;;1.60;;
18881;SDS011;9573;50.948;11.600;2024-01-16T03:37:13;9.60;;;2.10;;
18881;SDS011;9573;50.948;11.600;2024-01-16T03:39:40;4.77;;;1.87;;
18881;SDS011;9573;50.948;11.600;2024-01-16T03:42:09;5.27;;;1.63;;
18881;SDS011;9573;50.948;11.600;2024-01-16T03:44:38;9.37;;;2.20;;
18881;SDS011;9573;50.948;11.600;2024-01-16T03:47:05;5.77;;;1.90;;
18881;SDS011;9573;50.948;11.600;2024-01-16T03:49:34;4.57;;;1.90;;
18881;SDS011;9573;50.948;11.600;2024-01-16T03:52:01;4.73;;;1.40;;
18881;SDS011;9573;50.948;11.600;2024-01-16T03:54:28;8.50;;;2.33;;
18881;SDS011;9573;50.948;11.600;2024-01-16T03:56:55;3.90;;;1.93;;
18881;SDS011;9573;50.948;11.600;2024-01-16T03:59:23;6.60;;;2.40;;
18881;SDS011;9573;50.948;11.600;2024-01-16T04:01:50;6.90;;;2.60;;
18881;SDS011;9573;50.948;11.600;2024-01-16T04:04:17;4.70;;;2.30;;
18881;SDS011;9573;50.948;11.600;2024-01-16T04:06:46;6.30;;;2.50;;
18881;SDS011;9573;50.948;11.600;2024-01-16T04:09:14;9.10;;;2.70;;
18881;SDS011;9573;50.948;11.600;2024-01-16T04:11:41;7.73;;;2.40;;
18881;SDS011;9573;50.948;11.600;2024-01-16T04:14:08;9.43;;;2.37;;
18881;SDS011;9573;50.948;11.600;2024-01-16T04:16:35;7.70;;;2.57;;
18881;SDS011;9573;50.948;11.600;2024-01-16T04:19:02;4.80;;;1.93;;
18881;SDS011;9573;50.948;11.600;2024-01-16T04:21:29;11.73;;;2.40;;
18881;SDS011;9573;50.948;11.600;2024-01-16T04:23:58;4.07;;;1.87;;
18881;SDS011;9573;50.948;11.600;2024-01-16T04:26:25;9.47;;;2.30;;
18881;SDS011;9573;50.948;11.600;2024-01-16T04:28:52;14.83;;;2.83;;
18881;SDS011;9573;50.948;11.600;2024-01-16T04:31:19;6.53;;;2.50;;
18881;SDS011;9573;50.948;11.600;2024-01-16T04:33:47;6.93;;;2.20;;
18881;SDS011;9573;50.948;11.600;2024-01-16T04:36:14;1.70;;;1.50;;
18881;SDS011;9573;50.948;11.600;2024-01-16T04:38:41;8.47;;;2.40;;
18881;SDS011;9573;50.948;11.600;2024-01-16T04:41:10;5.70;;;2.20;;
18881;SDS011;9573;50.948;11.600;2024-01-16T04:43:37;8.13;;;2.07;;
18881;SDS011;9573;50.948;11.600;2024-01-16T04:46:04;7.20;;;2.23;;
18881;SDS011;9573;50.948;11.600;2024-01-16T04:48:31;5.80;;;2.50;;
18881;SDS011;9573;50.948;11.600;2024-01-16T04:50:58;14.47;;;2.80;;
18881;SDS011;9573;50.948;11.600;2024-01-16T04:53:25;8.90;;;2.33;;
18881;SDS011;9573;50.948;11.600;2024-01-16T04:55:52;4.33;;;1.77;;
18881;SDS011;9573;50.948;11.600;2024-01-16T04:58:21;5.90;;;2.10;;
18881;SDS011;9573;50.948;11.600;2024-01-16T05:00:48;8.90;;;2.70;;
18881;SDS011;9573;50.948;11.600;2024-01-16T05:03:15;8.40;;;2.10;;
18881;SDS011;9573;50.948;11.600;2024-01-16T05:05:42;12.53;;;2.77;;
18881;SDS011;9573;50.948;11.600;2024-01-16T05:08:09;12.07;;;2.60;;
18881;SDS011;9573;50.948;11.600;2024-01-16T05:10:36;4.70;;;1.70;;
18881;SDS011;9573;50.948;11.600;2024-01-16T05:13:04;13.77;;;2.77;;
18881;SDS011;9573;50.948;11.600;2024-01-16T05:15:32;8.00;;;2.83;;
18881;SDS011;9573;50.948;11.600;2024-01-16T05:17:59;5.17;;;2.37;;
18881;SDS011;9573;50.948;11.600;2024-01-16T05:20:26;6.33;;;2.40;;
18881;SDS011;9573;50.948;11.600;2024-01-16T05:22:54;8.50;;;2.60;;
18881;SDS011;9573;50.948;11.600;2024-01-16T05:25:22;6.23;;;2.17;;
18881;SDS011;9573;50.948;11.600;2024-01-16T05:27:49;11.10;;;2.70;;
18881;SDS011;9573;50.948;11.600;2024-01-16T05:30:16;12.07;;;2.20;;
18881;SDS011;9573;50.948;11.600;2024-01-16T05:32:44;8.57;;;2.43;;
18881;SDS011;9573;50.948;11.600;2024-01-16T05:35:11;6.37;;;2.03;;
18881;SDS011;9573;50.948;11.600;2024-01-16T05:37:39;10.50;;;2.50;;
18881;SDS011;9573;50.948;11.600;2024-01-16T05:40:06;10.87;;;2.70;;
18881;SDS011;9573;50.948;11.600;2024-01-16T05:42:35;8.77;;;2.50;;
18881;SDS011;9573;50.948;11.600;2024-01-16T05:45:02;12.80;;;2.90;;
18881;SDS011;9573;50.948;11.600;2024-01-16T05:47:30;8.80;;;2.37;;
18881;SDS011;9573;50.948;11.600;2024-01-16T05:49:59;10.47;;;2.80;;
18881;SDS011;9573;50.948;11.600;2024-01-16T05:52:27;7.83;;;2.30;;
18881;SDS011;9573;50.948;11.600;2024-01-16T05:54:54;8.27;;;2.73;;
18881;SDS011;9573;50.948;11.600;2024-01-16T05:57:23;12.23;;;2.83;;
18881;SDS011;9573;50.948;11.600;2024-01-16T05:59:50;9.37;;;2.90;;
18881;SDS011;9573;50.948;11.600;2024-01-16T06:02:17;10.70;;;2.60;;
18881;SDS011;9573;50.948;11.600;2024-01-16T06:04:44;6.07;;;2.53;;
18881;SDS011;9573;50.948;11.600;2024-01-16T06:07:13;9.40;;;2.83;;
18881;SDS011;9573;50.948;11.600;2024-01-16T06:09:41;11.00;;;2.53;;
18881;SDS011;9573;50.948;11.600;2024-01-16T06:12:08;6.50;;;2.77;;
18881;SDS011;9573;50.948;11.600;2024-01-16T06:14:37;8.50;;;2.70;;
18881;SDS011;9573;50.948;11.600;2024-01-16T06:17:05;12.70;;;2.27;;
18881;SDS011;9573;50.948;11.600;2024-01-16T06:19:32;11.80;;;2.53;;
18881;SDS011;9573;50.948;11.600;2024-01-16T06:21:59;6.37;;;2.83;;
18881;SDS011;9573;50.948;11.600;2024-01-16T06:24:28;12.03;;;2.83;;
18881;SDS011;9573;50.948;11.600;2024-01-16T06:27:01;10.83;;;2.93;;
18881;SDS011;9573;50.948;11.600;2024-01-16T06:29:30;10.17;;;2.70;;
18881;SDS011;9573;50.948;11.600;2024-01-16T06:31:57;7.80;;;2.53;;
18881;SDS011;9573;50.948;11.600;2024-01-16T06:34:25;12.57;;;3.00;;
18881;SDS011;9573;50.948;11.600;2024-01-16T06:36:52;8.10;;;2.40;;
18881;SDS011;9573;50.948;11.600;2024-01-16T06:39:19;10.83;;;2.93;;
18881;SDS011;9573;50.948;11.600;2024-01-16T06:41:48;10.57;;;3.03;;
18881;SDS011;9573;50.948;11.600;2024-01-16T06:44:15;8.90;;;2.97;;
18881;SDS011;9573;50.948;11.600;2024-01-16T06:46:42;11.07;;;2.70;;
18881;SDS011;9573;50.948;11.600;2024-01-16T06:49:09;15.63;;;3.53;;
18881;SDS011;9573;50.948;11.600;2024-01-16T06:51:37;11.17;;;2.70;;
18881;SDS011;9573;50.948;11.600;2024-01-16T06:54:04;6.90;;;2.63;;
18881;SDS011;9573;50.948;11.600;2024-01-16T06:56:31;6.97;;;2.73;;
18881;SDS011;9573;50.948;11.600;2024-01-16T06:59:00;12.40;;;3.10;;
18881;SDS011;9573;50.948;11.600;2024-01-16T07:01:27;10.37;;;2.83;;
18881;SDS011;9573;50.948;11.600;2024-01-16T07:03:54;11.20;;;2.87;;
18881;SDS011;9573;50.948;11.600;2024-01-16T07:06:21;11.17;;;3.03;;
18881;SDS011;9573;50.948;11.600;2024-01-16T07:08:48;12.43;;;3.43;;
18881;SDS011;9573;50.948;11.600;2024-01-16T07:11:15;22.10;;;6.67;;
18881;SDS011;9573;50.948;11.600;2024-01-16T07:13:43;13.77;;;3.60;;
18881;SDS011;9573;50.948;11.600;2024-01-16T07:16:11;15.13;;;3.90;;
18881;SDS011;9573;50.948;11.600;2024-01-16T07:18:39;12.60;;;3.07;;
18881;SDS011;9573;50.948;11.600;2024-01-16T07:21:15;13.63;;;2.90;;
18881;SDS011;9573;50.948;11.600;2024-01-16T07:23:43;13.57;;;3.53;;
18881;SDS011;9573;50.948;11.600;2024-01-16T07:26:10;9.37;;;3.17;;
18881;SDS011;9573;50.948;11.600;2024-01-16T07:28:38;15.63;;;3.37;;
18881;SDS011;9573;50.948;11.600;2024-01-16T07:31:05;8.97;;;3.23;;
18881;SDS011;9573;50.948;11.600;2024-01-16T07:33:33;11.20;;;3.20;;
18881;SDS011;9573;50.948;11.600;2024-01-16T07:36:01;14.00;;;3.00;;
18881;SDS011;9573;50.948;11.600;2024-01-16T07:38:28;21.23;;;5.33;;
18881;SDS011;9573;50.948;11.600;2024-01-16T07:40:55;13.33;;;3.30;;
18881;SDS011;9573;50.948;11.600;2024-01-16T07:43:22;11.27;;;3.80;;
18881;SDS011;9573;50.948;11.600;2024-01-16T07:45:50;9.53;;;3.13;;
18881;SDS011;9573;50.948;11.600;2024-01-16T07:48:17;11.63;;;3.23;;
18881;SDS011;9573;50.948;11.600;2024-01-16T07:50:45;7.87;;;2.80;;
18881;SDS011;9573;50.948;11.600;2024-01-16T07:53:13;10.60;;;3.07;;
18881;SDS011;9573;50.948;11.600;2024-01-16T07:55:41;10.17;;;2.90;;
18881;SDS011;9573;50.948;11.600;2024-01-16T07:58:09;11.80;;;3.20;;
18881;SDS011;9573;50.948;11.600;2024-01-16T08:00:37;15.97;;;3.10;;
18881;SDS011;9573;50.948;11.600;2024-01-16T08:03:08;25.47;;;7.10;;
18881;SDS011;9573;50.948;11.600;2024-01-16T08:05:36;8.03;;;2.90;;
18881;SDS011;9573;50.948;11.600;2024-01-16T08:08:07;15.17;;;4.10;;
18881;SDS011;9573;50.948;11.600;2024-01-16T08:10:35;11.60;;;2.97;;
18881;SDS011;9573;50.948;11.600;2024-01-16T08:13:02;13.20;;;3.10;;
18881;SDS011;9573;50.948;11.600;2024-01-16T08:15:30;12.43;;;3.30;;
18881;SDS011;9573;50.948;11.600;2024-01-16T08:17:57;14.57;;;3.20;;
18881;SDS011;9573;50.948;11.600;2024-01-16T08:20:24;16.90;;;4.07;;
18881;SDS011;9573;50.948;11.600;2024-01-16T08:22:51;16.50;;;3.83;;
18881;SDS011;9573;50.948;11.600;2024-01-16T08:25:20;14.00;;;3.97;;
18881;SDS011;9573;50.948;11.600;2024-01-16T08:27:48;15.60;;;3.50;;
18881;SDS011;9573;50.948;11.600;2024-01-16T08:30:15;14.90;;;3.70;;
18881;SDS011;9573;50.948;11.600;2024-01-16T08:32:42;12.50;;;2.93;;
18881;SDS011;9573;50.948;11.600;2024-01-16T08:35:09;23.80;;;4.27;;
18881;SDS011;9573;50.948;11.600;2024-01-16T08:37:37;17.03;;;3.53;;
18881;SDS011;9573;50.948;11.600;2024-01-16T08:40:04;12.70;;;3.37;;
18881;SDS011;9573;50.948;11.600;2024-01-16T08:42:34;9.23;;;2.80;;
18881;SDS011;9573;50.948;11.600;2024-01-16T08:45:02;9.37;;;2.83;;
18881;SDS011;9573;50.948;11.600;2024-01-16T08:47:30;11.83;;;2.60;;
18881;SDS011;9573;50.948;11.600;2024-01-16T08:49:57;5.63;;;2.50;;
18881;SDS011;9573;50.948;11.600;2024-01-16T08:52:24;10.33;;;2.63;;
18881;SDS011;9573;50.948;11.600;2024-01-16T08:54:51;9.13;;;2.83;;
18881;SDS011;9573;50.948;11.600;2024-01-16T08:57:18;5.60;;;2.50;;
18881;SDS011;9573;50.948;11.600;2024-01-16T08:59:47;12.33;;;2.93;;
18881;SDS011;9573;50.948;11.600;2024-01-16T09:02:14;14.10;;;2.87;;
18881;SDS011;9573;50.948;11.600;2024-01-16T09:04:41;9.73;;;2.60;;
18881;SDS011;9573;50.948;11.600;2024-01-16T09:07:08;8.77;;;2.53;;
18881;SDS011;9573;50.948;11.600;2024-01-16T09:09:36;8.73;;;2.70;;
18881;SDS011;9573;50.948;11.600;2024-01-16T09:12:03;10.73;;;3.20;;
18881;SDS011;9573;50.948;11.600;2024-01-16T09:14:32;21.33;;;3.00;;
18881;SDS011;9573;50.948;11.600;2024-01-16T09:17:00;14.57;;;3.03;;
18881;SDS011;9573;50.948;11.600;2024-01-16T09:19:28;9.83;;;2.80;;
18881;SDS011;9573;50.948;11.600;2024-01-16T09:21:55;16.83;;;2.80;;
18881;SDS011;9573;50.948;11.600;2024-01-16T09:24:22;7.63;;;2.70;;
18881;SDS011;9573;50.948;11.600;2024-01-16T09:26:50;4.87;;;2.33;;
18881;SDS011;9573;50.948;11.600;2024-01-16T09:29:17;7.77;;;2.47;;
18881;SDS011;9573;50.948;11.600;2024-01-16T09:31:44;8.87;;;2.50;;
18881;SDS011;9573;50.948;11.600;2024-01-16T09:34:12;17.13;;;2.87;;
18881;SDS011;9573;50.948;11.600;2024-01-16T09:36:39;7.30;;;2.27;;
18881;SDS011;9573;50.948;11.600;2024-01-16T09:39:07;8.37;;;2.50;;
18881;SDS011;9573;50.948;11.600;2024-01-16T09:41:36;9.00;;;2.47;;
18881;SDS011;9573;50.948;11.600;2024-01-16T09:44:03;9.47;;;2.73;;
18881;SDS011;9573;50.948;11.600;2024-01-16T09:46:31;9.03;;;2.83;;
18881;SDS011;9573;50.948;11.600;2024-01-16T09:49:01;6.83;;;2.50;;
18881;SDS011;9573;50.948;11.600;2024-01-16T09:51:29;8.37;;;2.30;;
18881;SDS011;9573;50.948;11.600;2024-01-16T09:53:57;10.27;;;2.83;;
18881;SDS011;9573;50.948;11.600;2024-01-16T09:56:24;6.83;;;2.50;;
18881;SDS011;9573;50.948;11.600;2024-01-16T09:58:54;8.67;;;2.70;;
18881;SDS011;9573;50.948;11.600;2024-01-16T10:01:25;8.90;;;2.63;;
18881;SDS011;9573;50.948;11.600;2024-01-16T10:03:54;10.53;;;2.70;;
18881;SDS011;9573;50.948;11.600;2024-01-16T10:06:21;6.90;;;2.37;;
18881;SDS011;9573;50.948;11.600;2024-01-16T10:08:51;7.57;;;2.53;;
18881;SDS011;9573;50.948;11.600;2024-01-16T10:11:19;14.30;;;2.70;;
18881;SDS011;9573;50.948;11.600;2024-01-16T10:13:46;10.87;;;2.40;;
18881;SDS011;9573;50.948;11.600;2024-01-16T10:16:14;9.50;;;2.60;;
18881;SDS011;9573;50.948;11.600;2024-01-16T10:18:41;7.03;;;2.63;;
18881;SDS011;9573;50.948;11.600;2024-01-16T10:21:19;3.33;;;1.80;;
18881;SDS011;9573;50.948;11.600;2024-01-16T10:23:48;16.83;;;2.93;;
18881;SDS011;9573;50.948;11.600;2024-01-16T10:26:17;9.30;;;2.40;;
18881;SDS011;9573;50.948;11.600;2024-01-16T10:28:47;6.60;;;2.43;;
18881;SDS011;9573;50.948;11.600;2024-01-16T10:31:14;7.67;;;2.60;;
18881;SDS011;9573;50.948;11.600;2024-01-16T10:33:41;11.23;;;2.33;;
18881;SDS011;9573;50.948;11.600;2024-01-16T10:36:09;13.20;;;2.53;;
18881;SDS011;9573;50.948;11.600;2024-01-16T10:38:38;6.93;;;2.50;;
18881;SDS011;9573;50.948;11.600;2024-01-16T10:41:06;7.57;;;2.30;;
18881;SDS011;9573;50.948;11.600;2024-01-16T10:43:37;10.87;;;2.40;;
18881;SDS011;9573;50.948;11.600;2024-01-16T10:46:11;10.40;;;2.60;;
18881;SDS011;9573;50.948;11.600;2024-01-16T10:48:40;7.70;;;2.73;;
18881;SDS011;9573;50.948;11.600;2024-01-16T10:51:09;12.23;;;2.70;;
18881;SDS011;9573;50.948;11.600;2024-01-16T10:53:40;7.40;;;2.57;;
18881;SDS011;9573;50.948;11.600;2024-01-16T10:56:10;9.33;;;2.60;;
18881;SDS011;9573;50.948;11.600;2024-01-16T10:58:40;5.77;;;2.40;;
18881;SDS011;9573;50.948;11.600;2024-01-16T11:01:10;8.57;;;2.20;;
18881;SDS011;9573;50.948;11.600;2024-01-16T11:03:40;7.43;;;2.60;;
18881;SDS011;9573;50.948;11.600;2024-01-16T11:06:14;11.47;;;2.50;;
18881;SDS011;9573;50.948;11.600;2024-01-16T11:08:44;10.53;;;3.23;;
18881;SDS011;9573;50.948;11.600;2024-01-16T11:11:13;11.07;;;2.97;;
18881;SDS011;9573;50.948;11.600;2024-01-16T11:13:42;8.97;;;3.07;;
18881;SDS011;9573;50.948;11.600;2024-01-16T11:16:12;12.13;;;3.10;;
18881;SDS011;9573;50.948;11.600;2024-01-16T11:18:39;8.73;;;3.40;;
18881;SDS011;9573;50.948;11.600;2024-01-16T11:21:07;10.10;;;3.10;;
18881;SDS011;9573;50.948;11.600;2024-01-16T11:23:36;11.47;;;3.40;;
18881;SDS011;9573;50.948;11.600;2024-01-16T11:28:54;9.90;;;3.17;;
18881;SDS011;9573;50.948;11.600;2024-01-16T11:31:29;8.07;;;3.20;;
18881;SDS011;9573;50.948;11.600;2024-01-16T11:33:58;11.67;;;3.07;;
18881;SDS011;9573;50.948;11.600;2024-01-16T11:39:19;9.97;;;2.87;;
18881;SDS011;9573;50.948;11.600;2024-01-16T11:41:47;8.57;;;3.07;;
18881;SDS011;9573;50.948;11.600;2024-01-16T11:47:18;13.03;;;3.80;;
18881;SDS011;9573;50.948;11.600;2024-01-16T11:49:46;9.47;;;3.20;;
18881;SDS011;9573;50.948;11.600;2024-01-16T11:52:14;11.10;;;3.00;;
18881;SDS011;9573;50.948;11.600;2024-01-16T11:54:41;4.37;;;2.07;;
18881;SDS011;9573;50.948;11.600;2024-01-16T11:57:17;8.20;;;2.80;;
18881;SDS011;9573;50.948;11.600;2024-01-16T12:00:19;17.33;;;3.30;;
18881;SDS011;9573;50.948;11.600;2024-01-16T12:02:53;7.60;;;3.00;;
18881;SDS011;9573;50.948;11.600;2024-01-16T12:05:22;8.10;;;3.00;;
18881;SDS011;9573;50.948;11.600;2024-01-16T12:07:50;11.90;;;3.00;;
18881;SDS011;9573;50.948;11.600;2024-01-16T12:10:20;10.87;;;3.03;;
18881;SDS011;9573;50.948;11.600;2024-01-16T12:12:48;6.20;;;2.93;;
18881;SDS011;9573;50.948;11.600;2024-01-16T12:15:17;10.30;;;3.10;;
18881;SDS011;9573;50.948;11.600;2024-01-16T12:17:54;12.47;;;3.20;;
18881;SDS011;9573;50.948;11.600;2024-01-16T12:20:23;9.67;;;2.87;;
18881;SDS011;9573;50.948;11.600;2024-01-16T12:22:54;10.53;;;3.03;;
18881;SDS011;9573;50.948;11.600;2024-01-16T12:25:23;13.57;;;3.67;;
18881;SDS011;9573;50.948;11.600;2024-01-16T12:27:54;13.30;;;4.23;;
18881;SDS011;9573;50.948;11.600;2024-01-16T12:30:25;23.20;;;7.43;;
18881;SDS011;9573;50.948;11.600;2024-01-16T12:33:03;13.67;;;4.40;;
18881;SDS011;9573;50.948;11.600;2024-01-16T12:35:33;9.97;;;3.13;;
18881;SDS011;9573;50.948;11.600;2024-01-16T12:38:02;18.77;;;5.40;;
18881;SDS011;9573;50.948;11.600;2024-01-16T12:40:31;10.53;;;3.63;;
18881;SDS011;9573;50.948;11.600;2024-01-16T12:42:59;16.27;;;4.13;;
18881;SDS011;9573;50.948;11.600;2024-01-16T12:45:28;9.10;;;2.97;;
18881;SDS011;9573;50.948;11.600;2024-01-16T12:47:56;15.30;;;4.20;;
18881;SDS011;9573;50.948;11.600;2024-01-16T12:50:24;7.53;;;2.80;;
18881;SDS011;9573;50.948;11.600;2024-01-16T12:53:02;13.00;;;3.73;;
18881;SDS011;9573;50.948;11.600;2024-01-16T12:55:31;11.73;;;3.40;;
18881;SDS011;9573;50.948;11.600;2024-01-16T12:58:12;9.20;;;3.13;;
18881;SDS011;9573;50.948;11.600;2024-01-16T13:00:42;13.77;;;4.10;;
18881;SDS011;9573;50.948;11.600;2024-01-16T13:03:14;11.47;;;3.50;;
18881;SDS011;9573;50.948;11.600;2024-01-16T13:05:43;11.10;;;3.03;;
18881;SDS011;9573;50.948;11.600;2024-01-16T13:08:17;29.07;;;3.63;;
18881;SDS011;9573;50.948;11.600;2024-01-16T13:10:45;10.93;;;2.80;;
18881;SDS011;9573;50.948;11.600;2024-01-16T13:13:16;9.70;;;2.77;;
18881;SDS011;9573;50.948;11.600;2024-01-16T13:15:46;6.90;;;3.03;;
18881;SDS011;9573;50.948;11.600;2024-01-16T13:18:18;11.73;;;3.10;;
18881;SDS011;9573;50.948;11.600;2024-01-16T13:20:47;6.70;;;2.60;;
18881;SDS011;9573;50.948;11.600;2024-01-16T13:23:15;6.33;;;2.80;;
18881;SDS011;9573;50.948;11.600;2024-01-16T13:25:42;7.00;;;3.00;;
18881;SDS011;9573;50.948;11.600;2024-01-16T13:28:11;9.97;;;3.00;;
18881;SDS011;9573;50.948;11.600;2024-01-16T13:30:39;10.43;;;2.93;;
18881;SDS011;9573;50.948;11.600;2024-01-16T13:33:07;14.93;;;3.57;;
18881;SDS011;9573;50.948;11.600;2024-01-16T13:35:35;9.57;;;3.10;;
18881;SDS011;9573;50.948;11.600;2024-01-16T13:38:05;19.27;;;3.70;;
18881;SDS011;9573;50.948;11.600;2024-01-16T13:40:33;13.73;;;3.07;;
18881;SDS011;9573;50.948;11.600;2024-01-16T13:43:02;13.93;;;2.80;;
18881;SDS011;9573;50.948;11.600;2024-01-16T13:45:30;8.57;;;2.80;;
18881;SDS011;9573;50.948;11.600;2024-01-16T13:47:57;11.73;;;2.80;;
18881;SDS011;9573;50.948;11.600;2024-01-16T13:50:27;10.90;;;3.10;;
18881;SDS011;9573;50.948;11.600;2024-01-16T13:52:55;23.73;;;3.80;;
18881;SDS011;9573;50.948;11.600;2024-01-16T13:55:23;9.53;;;3.07;;
18881;SDS011;9573;50.948;11.600;2024-01-16T13:57:50;10.33;;;3.33;;
18881;SDS011;9573;50.948;11.600;2024-01-16T14:00:17;12.03;;;4.10;;
18881;SDS011;9573;50.948;11.600;2024-01-16T14:02:44;9.47;;;3.47;;
18881;SDS011;9573;50.948;11.600;2024-01-16T14:05:13;13.50;;;3.30;;
18881;SDS011;9573;50.948;11.600;2024-01-16T14:07:44;7.67;;;2.87;;
18881;SDS011;9573;50.948;11.600;2024-01-16T14:10:15;15.17;;;3.30;;
18881;SDS011;9573;50.948;11.600;2024-01-16T14:12:44;11.27;;;3.20;;
18881;SDS011;9573;50.948;11.600;2024-01-16T14:15:12;19.20;;;3.47;;
18881;SDS011;9573;50.948;11.600;2024-01-16T14:17:44;11.37;;;3.20;;
18881;SDS011;9573;50.948;11.600;2024-01-16T14:20:13;9.00;;;3.20;;
18881;SDS011;9573;50.948;11.600;2024-01-16T14:22:41;7.57;;;2.90;;
18881;SDS011;9573;50.948;11.600;2024-01-16T14:25:10;11.90;;;3.00;;
18881;SDS011;9573;50.948;11.600;2024-01-16T14:27:40;16.23;;;4.20;;
18881;SDS011;9573;50.948;11.600;2024-01-16T14:30:09;12.20;;;3.37;;
18881;SDS011;9573;50.948;11.600;2024-01-16T14:32:39;16.67;;;3.33;;
18881;SDS011;9573;50.948;11.600;2024-01-16T14:35:08;11.83;;;3.30;;
18881;SDS011;9573;50.948;11.600;2024-01-16T14:37:36;9.67;;;2.87;;
18881;SDS011;9573;50.948;11.600;2024-01-16T14:40:06;17.37;;;3.70;;
18881;SDS011;9573;50.948;11.600;2024-01-16T14:42:38;12.73;;;3.77;;
18881;SDS011;9573;50.948;11.600;2024-01-16T14:45:05;12.83;;;2.93;;
18881;SDS011;9573;50.948;11.600;2024-01-16T14:47:36;12.17;;;2.97;;
18881;SDS011;9573;50.948;11.600;2024-01-16T14:50:04;12.57;;;3.40;;
18881;SDS011;9573;50.948;11.600;2024-01-16T14:52:34;10.23;;;3.70;;
18881;SDS011;9573;50.948;11.600;2024-01-16T14:55:02;15.40;;;3.40;;
18881;SDS011;9573;50.948;11.600;2024-01-16T14:57:33;7.03;;;2.70;;